createdAt,value
2016-12-16T00:00:51.233Z,0
2016-12-16T00:02:25.450Z,0
2016-12-16T00:03:59.033Z,0
2016-12-16T00:05:51.537Z,0
2016-12-16T00:07:25.902Z,0
2016-12-16T00:08:59.388Z,0
2016-12-16T00:10:33.593Z,0
2016-12-16T00:12:03.535Z,0
2016-12-16T00:13:36.990Z,0
2016-12-16T00:15:11.129Z,0
2016-12-16T00:16:45.404Z,0
2016-12-16T00:18:18.841Z,0
2016-12-16T00:19:52.154Z,0
2016-12-16T00:21:26.670Z,0
2016-12-16T00:23:04.562Z,0
2016-12-16T00:25:03.393Z,0
2016-12-16T00:27:02.879Z,0
2016-12-16T00:28:42.996Z,0
2016-12-16T00:30:35.872Z,0
2016-12-16T00:31:51.500Z,0
2016-12-16T00:33:25.483Z,0
2016-12-16T00:35:18.199Z,0
2016-12-16T00:36:52.032Z,0
2016-12-16T00:38:26.534Z,0
2016-12-16T00:40:00.189Z,0
2016-12-16T00:41:34.357Z,0
2016-12-16T00:43:07.686Z,0
2016-12-16T00:44:41.669Z,0
2016-12-16T00:46:15.444Z,0
2016-12-16T00:47:49.602Z,0
2016-12-16T00:49:23.581Z,0
2016-12-16T00:50:53.389Z,0
2016-12-16T00:52:27.043Z,0
2016-12-16T00:54:00.817Z,0
2016-12-16T00:55:34.376Z,0
2016-12-16T00:57:07.759Z,0
2016-12-16T00:58:42.312Z,0
2016-12-16T01:00:15.947Z,0
2016-12-16T01:01:49.553Z,0
2016-12-16T01:03:17.925Z,0
2016-12-16T01:04:51.438Z,0
2016-12-16T01:06:24.984Z,0
2016-12-16T01:07:58.255Z,0
2016-12-16T01:09:31.837Z,0
2016-12-16T01:11:05.113Z,0
2016-12-16T01:12:39.068Z,0
2016-12-16T01:14:12.368Z,0
2016-12-16T01:15:46.102Z,0
2016-12-16T01:17:38.800Z,0
2016-12-16T01:19:12.426Z,0
2016-12-16T01:20:46.026Z,0
2016-12-16T01:22:19.305Z,0
2016-12-16T01:23:52.944Z,0
2016-12-16T01:25:26.501Z,0
2016-12-16T01:27:00.032Z,0
2016-12-16T01:28:33.732Z,0
2016-12-16T01:30:07.046Z,0
2016-12-16T01:31:40.618Z,0
2016-12-16T01:33:14.140Z,0
2016-12-16T01:34:47.739Z,0
2016-12-16T01:36:23.350Z,0
2016-12-16T01:37:57.093Z,0
2016-12-16T01:39:30.660Z,0
2016-12-16T01:41:04.146Z,0
2016-12-16T01:42:37.499Z,0
2016-12-16T01:44:30.174Z,0
2016-12-16T01:46:04.155Z,0
2016-12-16T01:47:37.432Z,0
2016-12-16T01:49:11.240Z,0
2016-12-16T01:50:45.149Z,0
2016-12-16T01:52:18.580Z,0
2016-12-16T01:53:52.077Z,0
2016-12-16T01:55:25.787Z,0
2016-12-16T01:56:59.616Z,0
2016-12-16T01:58:33.045Z,0
2016-12-16T02:00:06.772Z,0
2016-12-16T02:01:40.735Z,0
2016-12-16T02:03:41.498Z,0
2016-12-16T02:05:15.425Z,0
2016-12-16T02:06:48.728Z,0
2016-12-16T02:08:22.257Z,0
2016-12-16T02:09:55.789Z,0
2016-12-16T02:11:29.150Z,0
2016-12-16T02:13:02.745Z,0
2016-12-16T02:14:36.280Z,0
2016-12-16T02:16:06.333Z,0
2016-12-16T02:17:39.710Z,0
2016-12-16T02:19:13.228Z,0
2016-12-16T02:20:46.969Z,0
2016-12-16T02:22:20.594Z,0
2016-12-16T02:23:54.251Z,0
2016-12-16T02:25:27.997Z,0
2016-12-16T02:27:02.018Z,0
2016-12-16T02:28:54.990Z,0
2016-12-16T02:30:28.916Z,0
2016-12-16T02:32:02.160Z,0
2016-12-16T02:33:35.786Z,0
2016-12-16T02:35:10.252Z,0
2016-12-16T02:36:43.789Z,0
2016-12-16T02:38:17.060Z,0
2016-12-16T02:39:50.363Z,0
2016-12-16T02:41:24.569Z,0
2016-12-16T02:42:58.531Z,0
2016-12-16T02:44:32.144Z,0
2016-12-16T02:46:05.422Z,0
2016-12-16T02:47:39.591Z,0
2016-12-16T02:49:13.123Z,0
2016-12-16T02:50:46.615Z,0
2016-12-16T02:52:48.093Z,0
2016-12-16T02:54:21.357Z,0
2016-12-16T02:55:54.866Z,0
2016-12-16T02:57:28.468Z,0
2016-12-16T02:59:02.579Z,0
2016-12-16T03:00:35.871Z,0
2016-12-16T03:02:09.115Z,0
2016-12-16T03:04:01.840Z,0
2016-12-16T03:05:36.022Z,0
2016-12-16T03:07:09.947Z,0
2016-12-16T03:08:43.611Z,0
2016-12-16T03:10:16.899Z,0
2016-12-16T03:11:51.208Z,0
2016-12-16T03:13:24.468Z,0
2016-12-16T03:15:00.654Z,0
2016-12-16T03:16:34.257Z,0
2016-12-16T03:18:08.149Z,0
2016-12-16T03:19:41.455Z,0
2016-12-16T03:21:14.945Z,0
2016-12-16T03:22:48.587Z,0
2016-12-16T03:24:22.073Z,0
2016-12-16T03:26:20.986Z,0
2016-12-16T03:28:22.485Z,0
2016-12-16T03:30:24.588Z,0
2016-12-16T03:32:05.807Z,0
2016-12-16T03:33:59.903Z,0
2016-12-16T03:35:36.323Z,0
2016-12-16T03:37:10.504Z,0
2016-12-16T03:38:44.249Z,0
2016-12-16T03:40:17.485Z,0
2016-12-16T03:41:51.343Z,0
2016-12-16T03:43:25.273Z,0
2016-12-16T03:44:58.635Z,0
2016-12-16T03:46:31.928Z,0
2016-12-16T03:48:01.684Z,0
2016-12-16T03:49:35.257Z,0
2016-12-16T03:51:09.713Z,0
2016-12-16T03:52:43.323Z,0
2016-12-16T03:54:16.824Z,0
2016-12-16T03:55:50.415Z,0
2016-12-16T03:57:23.971Z,0
2016-12-16T03:58:57.592Z,0
2016-12-16T04:00:50.683Z,0
2016-12-16T04:02:25.151Z,0
2016-12-16T04:03:58.937Z,0
2016-12-16T04:05:32.185Z,0
2016-12-16T04:07:05.859Z,0
2016-12-16T04:08:39.342Z,0
2016-12-16T04:10:12.723Z,0
2016-12-16T04:11:46.645Z,0
2016-12-16T04:13:20.179Z,0
2016-12-16T04:14:48.340Z,0
2016-12-16T04:16:16.725Z,0
2016-12-16T04:17:30.749Z,0
2016-12-16T04:19:04.333Z,0
2016-12-16T04:20:37.833Z,0
2016-12-16T04:22:11.455Z,0
2016-12-16T04:23:44.713Z,0
2016-12-16T04:25:37.719Z,0
2016-12-16T04:27:11.697Z,0
2016-12-16T04:28:45.196Z,0
2016-12-16T04:30:13.378Z,0
2016-12-16T04:31:28.057Z,0
2016-12-16T04:33:02.089Z,0
2016-12-16T04:34:35.374Z,0
2016-12-16T04:36:08.931Z,0
2016-12-16T04:38:01.690Z,0
2016-12-16T04:39:35.868Z,0
2016-12-16T04:40:51.003Z,0
2016-12-16T04:42:24.637Z,0
2016-12-16T04:43:58.549Z,0
2016-12-16T04:45:31.855Z,0
2016-12-16T04:47:24.612Z,0
2016-12-16T04:48:58.010Z,0
2016-12-16T04:50:31.849Z,0
2016-12-16T04:52:05.714Z,0
2016-12-16T04:53:41.335Z,0
2016-12-16T04:55:14.935Z,0
2016-12-16T04:56:48.821Z,0
2016-12-16T04:58:22.069Z,0
2016-12-16T04:59:55.676Z,0
2016-12-16T05:01:29.078Z,0
2016-12-16T05:03:02.892Z,0
2016-12-16T05:04:36.158Z,0
2016-12-16T05:06:09.736Z,0
2016-12-16T05:07:42.962Z,0
2016-12-16T05:09:16.671Z,0
2016-12-16T05:11:10.084Z,0
2016-12-16T05:12:43.805Z,0
2016-12-16T05:14:17.375Z,0
2016-12-16T05:15:51.354Z,0
2016-12-16T05:17:24.682Z,0
2016-12-16T05:18:58.270Z,0
2016-12-16T05:20:31.820Z,0
2016-12-16T05:22:05.788Z,0
2016-12-16T05:23:39.118Z,0
2016-12-16T05:25:12.970Z,0
2016-12-16T05:26:48.165Z,0
2016-12-16T05:28:21.777Z,0
2016-12-16T05:29:55.683Z,0
2016-12-16T05:31:29.134Z,0
2016-12-16T05:33:22.036Z,0
2016-12-16T05:34:56.523Z,0
2016-12-16T05:36:30.914Z,0
2016-12-16T05:38:05.522Z,0
2016-12-16T05:39:39.369Z,0
2016-12-16T05:41:13.118Z,0
2016-12-16T05:42:47.212Z,0
2016-12-16T05:44:20.567Z,0
2016-12-16T05:45:54.021Z,0
2016-12-16T05:47:27.726Z,0
2016-12-16T05:49:01.259Z,0
2016-12-16T05:50:30.517Z,0
2016-12-16T05:52:04.170Z,0
2016-12-16T05:53:39.600Z,0
2016-12-16T05:55:12.913Z,0
2016-12-16T05:56:47.236Z,0
2016-12-16T05:58:20.857Z,0
2016-12-16T06:00:13.731Z,0
2016-12-16T06:01:47.489Z,0
2016-12-16T06:03:21.861Z,0
2016-12-16T06:04:55.584Z,0
2016-12-16T06:06:29.115Z,0
2016-12-16T06:08:02.666Z,0
2016-12-16T06:09:35.993Z,0
2016-12-16T06:11:09.528Z,0
2016-12-16T06:12:43.064Z,0
2016-12-16T06:14:17.187Z,0
2016-12-16T06:15:50.537Z,0
2016-12-16T06:17:23.971Z,0
2016-12-16T06:18:58.360Z,0
2016-12-16T06:20:32.032Z,0
2016-12-16T06:22:33.077Z,0
2016-12-16T06:24:06.368Z,0
2016-12-16T06:25:39.908Z,0
2016-12-16T06:27:13.548Z,0
2016-12-16T06:28:47.528Z,0
2016-12-16T06:30:21.139Z,0
2016-12-16T06:31:56.946Z,0
2016-12-16T06:33:31.049Z,0
2016-12-16T06:35:04.876Z,0
2016-12-16T06:36:58.073Z,0
2016-12-16T06:38:31.624Z,0
2016-12-16T06:40:05.124Z,0
2016-12-16T06:41:38.876Z,0
2016-12-16T06:43:12.227Z,0
2016-12-16T06:44:45.990Z,0
2016-12-16T06:46:19.396Z,0
2016-12-16T06:47:53.015Z,0
2016-12-16T06:49:26.733Z,0
2016-12-16T06:51:00.269Z,0
2016-12-16T06:52:33.555Z,4
2016-12-16T06:54:07.256Z,4
2016-12-16T06:55:40.979Z,0
2016-12-16T06:57:14.501Z,4
2016-12-16T06:58:48.277Z,4
2016-12-16T07:00:22.561Z,4
2016-12-16T07:01:56.309Z,4
2016-12-16T07:03:49.374Z,8
2016-12-16T07:05:22.645Z,8
2016-12-16T07:06:56.044Z,8
2016-12-16T07:08:29.991Z,12
2016-12-16T07:10:04.599Z,12
2016-12-16T07:11:38.409Z,16
2016-12-16T07:13:11.938Z,16
2016-12-16T07:14:45.551Z,16
2016-12-16T07:16:19.076Z,20
2016-12-16T07:17:53.087Z,20
2016-12-16T07:19:27.156Z,24
2016-12-16T07:21:00.715Z,28
2016-12-16T07:22:34.587Z,32
2016-12-16T07:24:08.329Z,32
2016-12-16T07:26:01.236Z,36
2016-12-16T07:27:34.844Z,40
2016-12-16T07:29:08.175Z,44
2016-12-16T07:30:41.760Z,52
2016-12-16T07:32:15.530Z,52
2016-12-16T07:33:49.452Z,52
2016-12-16T07:35:22.975Z,60
2016-12-16T07:36:56.668Z,64
2016-12-16T07:38:30.232Z,64
2016-12-16T07:40:03.728Z,68
2016-12-16T07:41:36.964Z,76
2016-12-16T07:43:10.580Z,84
2016-12-16T07:44:44.161Z,88
2016-12-16T07:46:18.280Z,88
2016-12-16T07:48:14.740Z,92
2016-12-16T07:49:51.771Z,100
2016-12-16T07:51:52.121Z,104
2016-12-16T07:53:26.708Z,112
2016-12-16T07:55:00.278Z,116
2016-12-16T07:56:33.872Z,128
2016-12-16T07:58:08.432Z,148
2016-12-16T07:59:43.055Z,144
2016-12-16T08:01:17.275Z,144
2016-12-16T08:02:50.883Z,128
2016-12-16T08:04:24.945Z,124
2016-12-16T08:06:19.016Z,140
2016-12-16T08:07:52.345Z,160
2016-12-16T08:09:20.817Z,192
2016-12-16T08:10:37.450Z,212
2016-12-16T08:12:30.545Z,220
2016-12-16T08:14:04.338Z,232
2016-12-16T08:15:38.877Z,232
2016-12-16T08:17:12.708Z,236
2016-12-16T08:18:48.259Z,252
2016-12-16T08:20:22.321Z,260
2016-12-16T08:21:55.832Z,276
2016-12-16T08:23:29.612Z,292
2016-12-16T08:24:59.435Z,312
2016-12-16T08:26:32.748Z,300
2016-12-16T08:28:06.660Z,304
2016-12-16T08:29:40.590Z,320
2016-12-16T08:31:13.851Z,324
2016-12-16T08:32:47.195Z,320
2016-12-16T08:34:20.759Z,324
2016-12-16T08:35:55.041Z,328
2016-12-16T08:37:48.425Z,336
2016-12-16T08:39:22.152Z,344
2016-12-16T08:40:55.834Z,356
2016-12-16T08:42:29.765Z,372
2016-12-16T08:44:04.035Z,392
2016-12-16T08:45:38.147Z,392
2016-12-16T08:47:11.784Z,400
2016-12-16T08:48:45.423Z,404
2016-12-16T08:50:19.180Z,408
2016-12-16T08:51:52.523Z,416
2016-12-16T08:53:26.269Z,436
2016-12-16T08:54:57.261Z,444
2016-12-16T08:56:30.820Z,424
2016-12-16T08:58:05.248Z,432
2016-12-16T08:59:39.113Z,452
2016-12-16T09:01:12.742Z,456
2016-12-16T09:02:46.268Z,472
2016-12-16T09:04:20.143Z,464
2016-12-16T09:06:12.609Z,480
2016-12-16T09:07:46.296Z,484
2016-12-16T09:09:19.792Z,504
2016-12-16T09:10:48.212Z,508
2016-12-16T09:12:02.527Z,508
2016-12-16T09:13:36.613Z,520
2016-12-16T09:15:10.587Z,528
2016-12-16T09:17:03.134Z,512
2016-12-16T09:18:37.074Z,508
2016-12-16T09:20:11.017Z,500
2016-12-16T09:23:26.520Z,500
2016-12-16T09:25:19.531Z,504
2016-12-16T09:26:53.216Z,528
2016-12-16T09:28:26.535Z,572
2016-12-16T09:30:00.676Z,600
2016-12-16T09:31:34.345Z,600
2016-12-16T09:33:08.057Z,592
2016-12-16T09:34:41.895Z,592
2016-12-16T09:36:15.270Z,584
2016-12-16T09:37:49.638Z,584
2016-12-16T09:39:23.700Z,608
2016-12-16T09:40:57.329Z,636
2016-12-16T09:42:30.689Z,636
2016-12-16T09:44:04.244Z,636
2016-12-16T09:45:38.588Z,644
2016-12-16T09:47:31.680Z,660
2016-12-16T09:49:07.190Z,692
2016-12-16T09:50:40.560Z,704
2016-12-16T09:52:14.445Z,740
2016-12-16T09:53:48.191Z,740
2016-12-16T09:55:21.488Z,728
2016-12-16T09:56:55.104Z,736
2016-12-16T09:58:28.685Z,728
2016-12-16T10:00:02.566Z,684
2016-12-16T10:01:35.887Z,692
2016-12-16T10:03:09.656Z,728
2016-12-16T10:04:43.704Z,764
2016-12-16T10:06:16.965Z,788
2016-12-16T10:07:50.375Z,808
2016-12-16T10:09:23.598Z,804
2016-12-16T10:11:17.020Z,796
2016-12-16T10:12:50.381Z,784
2016-12-16T10:14:23.698Z,772
2016-12-16T10:15:56.980Z,756
2016-12-16T10:17:30.944Z,748
2016-12-16T10:19:05.802Z,780
2016-12-16T10:20:39.434Z,788
2016-12-16T10:22:13.233Z,788
2016-12-16T10:23:46.737Z,788
2016-12-16T10:25:20.354Z,864
2016-12-16T10:26:54.469Z,864
2016-12-16T10:28:28.130Z,860
2016-12-16T10:30:02.092Z,876
2016-12-16T10:31:36.296Z,896
2016-12-16T10:33:30.010Z,872
2016-12-16T10:35:04.757Z,864
2016-12-16T10:36:38.731Z,844
2016-12-16T10:38:12.441Z,868
2016-12-16T10:39:47.085Z,888
2016-12-16T10:41:22.705Z,876
2016-12-16T10:42:56.791Z,876
2016-12-16T10:44:30.480Z,884
2016-12-16T10:46:04.431Z,888
2016-12-16T10:48:00.384Z,880
2016-12-16T10:49:34.327Z,872
2016-12-16T10:51:07.668Z,864
2016-12-16T10:52:41.734Z,880
2016-12-16T10:54:15.943Z,888
2016-12-16T10:55:49.862Z,880
2016-12-16T10:57:23.523Z,892
2016-12-16T10:58:57.511Z,916
2016-12-16T11:00:32.095Z,940
2016-12-16T11:02:25.289Z,936
2016-12-16T11:03:59.100Z,952
2016-12-16T11:05:27.303Z,956
2016-12-16T11:06:42.776Z,948
2016-12-16T11:08:16.755Z,968
2016-12-16T11:10:09.485Z,988
2016-12-16T11:11:52.486Z,984
2016-12-16T11:13:26.123Z,992
2016-12-16T11:14:59.665Z,1012
2016-12-16T11:16:52.248Z,1012
2016-12-16T11:18:26.057Z,996
2016-12-16T11:19:40.494Z,1020
2016-12-16T11:21:14.895Z,1036
2016-12-16T11:23:07.861Z,1060
2016-12-16T11:24:41.884Z,1056
2016-12-16T11:28:19.876Z,1096
2016-12-16T11:29:53.741Z,1096
2016-12-16T11:31:27.950Z,1096
2016-12-16T11:33:01.348Z,1084
2016-12-16T11:34:35.453Z,1092
2016-12-16T11:36:09.991Z,1092
2016-12-16T11:37:44.322Z,1104
2016-12-16T11:39:18.090Z,1100
2016-12-16T11:40:51.980Z,1096
2016-12-16T11:42:25.627Z,1100
2016-12-16T11:44:18.425Z,1104
2016-12-16T11:45:52.171Z,1100
2016-12-16T11:47:26.361Z,1076
2016-12-16T11:49:00.786Z,1056
2016-12-16T11:50:34.793Z,1072
2016-12-16T11:52:08.550Z,1060
2016-12-16T11:53:42.092Z,1080
2016-12-16T11:55:16.569Z,1088
2016-12-16T11:56:50.342Z,1056
2016-12-16T11:58:23.764Z,1048
2016-12-16T11:59:57.760Z,1044
2016-12-16T12:01:31.956Z,1040
2016-12-16T12:03:25.144Z,1040
2016-12-16T12:04:58.780Z,1032
2016-12-16T12:06:32.386Z,1044
2016-12-16T12:08:06.858Z,1032
2016-12-16T12:09:40.928Z,980
2016-12-16T12:11:14.614Z,984
2016-12-16T12:12:48.994Z,1004
2016-12-16T12:14:23.208Z,976
2016-12-16T12:15:58.788Z,956
2016-12-16T12:17:32.960Z,944
2016-12-16T12:19:07.340Z,968
2016-12-16T12:20:40.686Z,964
2016-12-16T12:22:15.021Z,928
2016-12-16T12:23:48.684Z,928
2016-12-16T12:25:42.793Z,928
2016-12-16T12:27:16.738Z,924
2016-12-16T12:28:50.724Z,956
2016-12-16T12:30:25.106Z,980
2016-12-16T12:31:58.871Z,956
2016-12-16T12:33:32.348Z,928
2016-12-16T12:35:06.276Z,932
2016-12-16T12:36:40.007Z,904
2016-12-16T12:38:13.586Z,888
2016-12-16T12:39:47.308Z,900
2016-12-16T12:41:17.387Z,912
2016-12-16T12:42:51.270Z,920
2016-12-16T12:44:25.059Z,940
2016-12-16T12:45:58.683Z,984
2016-12-16T12:47:32.754Z,984
2016-12-16T12:49:06.410Z,976
2016-12-16T12:51:00.194Z,956
2016-12-16T12:52:35.047Z,924
2016-12-16T12:54:08.612Z,884
2016-12-16T12:55:42.507Z,864
2016-12-16T12:57:16.347Z,852
2016-12-16T12:58:50.060Z,852
2016-12-16T13:00:23.653Z,844
2016-12-16T13:01:59.966Z,836
2016-12-16T13:03:34.116Z,808
2016-12-16T13:05:07.823Z,764
2016-12-16T13:06:43.643Z,748
2016-12-16T13:08:18.259Z,732
2016-12-16T13:10:17.578Z,728
2016-12-16T13:11:52.306Z,732
2016-12-16T13:13:26.023Z,732
2016-12-16T13:14:55.932Z,732
2016-12-16T13:16:29.812Z,716
2016-12-16T13:18:03.729Z,700
2016-12-16T13:19:37.249Z,688
2016-12-16T13:21:11.051Z,676
2016-12-16T13:22:44.704Z,664
2016-12-16T13:24:18.829Z,656
2016-12-16T13:25:52.457Z,644
2016-12-16T13:27:45.025Z,640
2016-12-16T13:29:19.643Z,620
2016-12-16T13:30:53.353Z,632
2016-12-16T13:32:27.453Z,632
2016-12-16T13:34:00.911Z,632
2016-12-16T13:35:34.841Z,628
2016-12-16T13:37:08.513Z,616
2016-12-16T13:38:37.470Z,608
2016-12-16T13:40:10.877Z,616
2016-12-16T13:41:45.147Z,612
2016-12-16T13:42:59.638Z,596
2016-12-16T13:44:52.452Z,592
2016-12-16T13:46:26.002Z,584
2016-12-16T13:47:59.969Z,564
2016-12-16T13:49:33.658Z,556
2016-12-16T13:51:07.141Z,556
2016-12-16T13:52:40.893Z,532
2016-12-16T13:54:15.322Z,520
2016-12-16T13:55:49.282Z,500
2016-12-16T13:57:22.771Z,476
2016-12-16T13:58:56.731Z,468
2016-12-16T14:00:30.682Z,464
2016-12-16T14:02:04.919Z,452
2016-12-16T14:03:38.613Z,432
2016-12-16T14:05:31.596Z,416
2016-12-16T14:07:06.213Z,408
2016-12-16T14:08:40.537Z,384
2016-12-16T14:10:21.388Z,376
2016-12-16T14:12:15.539Z,364
2016-12-16T14:13:49.465Z,364
2016-12-16T14:15:22.974Z,364
2016-12-16T14:16:57.105Z,352
2016-12-16T14:18:30.693Z,340
2016-12-16T14:20:06.366Z,344
2016-12-16T14:21:40.228Z,344
2016-12-16T14:23:13.761Z,336
2016-12-16T14:24:47.262Z,316
2016-12-16T14:26:18.113Z,300
2016-12-16T14:28:15.278Z,292
2016-12-16T14:29:49.688Z,268
2016-12-16T14:31:24.161Z,256
2016-12-16T14:32:58.800Z,240
2016-12-16T14:34:32.470Z,224
2016-12-16T14:36:06.490Z,204
2016-12-16T14:37:42.339Z,200
2016-12-16T14:39:16.873Z,200
2016-12-16T14:41:10.833Z,200
2016-12-16T14:42:44.878Z,188
2016-12-16T14:44:19.010Z,180
2016-12-16T14:45:50.195Z,172
2016-12-16T14:47:23.848Z,168
2016-12-16T14:48:59.285Z,160
2016-12-16T14:50:34.910Z,156
2016-12-16T14:52:08.841Z,148
2016-12-16T14:53:42.565Z,136
2016-12-16T14:55:16.470Z,136
2016-12-16T14:56:50.672Z,128
2016-12-16T14:58:44.527Z,120
2016-12-16T15:00:19.193Z,116
2016-12-16T15:01:53.103Z,100
2016-12-16T15:03:21.453Z,92
2016-12-16T15:04:37.808Z,84
2016-12-16T15:06:30.858Z,76
2016-12-16T15:08:05.263Z,68
2016-12-16T15:09:38.936Z,64
2016-12-16T15:11:13.480Z,56
2016-12-16T15:12:47.427Z,52
2016-12-16T15:14:21.125Z,48
2016-12-16T15:15:49.249Z,44
2016-12-16T15:17:24.375Z,40
2016-12-16T15:18:58.062Z,36
2016-12-16T15:20:31.775Z,28
2016-12-16T15:22:05.688Z,28
2016-12-16T15:23:40.032Z,24
2016-12-16T15:25:13.810Z,20
2016-12-16T15:26:47.117Z,20
2016-12-16T15:28:21.121Z,16
2016-12-16T15:29:55.589Z,12
2016-12-16T15:31:48.980Z,12
2016-12-16T15:33:22.312Z,12
2016-12-16T15:34:57.997Z,8
2016-12-16T15:36:32.535Z,8
2016-12-16T15:38:06.128Z,4
2016-12-16T15:39:39.994Z,8
2016-12-16T15:41:13.686Z,4
2016-12-16T15:42:47.676Z,4
2016-12-16T15:44:21.538Z,4
2016-12-16T15:46:22.096Z,4
2016-12-16T15:47:59.127Z,0
2016-12-16T15:49:32.769Z,0
2016-12-16T15:51:06.570Z,0
2016-12-16T15:52:59.869Z,0
2016-12-16T15:54:33.515Z,0
2016-12-16T15:56:06.928Z,0
2016-12-16T15:57:40.727Z,0
2016-12-16T15:59:16.867Z,0
2016-12-16T16:00:53.312Z,0
2016-12-16T16:02:26.802Z,0
2016-12-16T16:04:20.712Z,0
2016-12-16T16:05:54.707Z,0
2016-12-16T16:07:28.539Z,0
2016-12-16T16:09:02.709Z,0
2016-12-16T16:10:31.823Z,0
2016-12-16T16:12:07.089Z,0
2016-12-16T16:13:41.416Z,0
2016-12-16T16:15:14.924Z,0
2016-12-16T16:16:49.109Z,0
2016-12-16T16:18:22.778Z,0
2016-12-16T16:19:56.821Z,0
2016-12-16T16:21:30.298Z,0
2016-12-16T16:23:04.607Z,0
2016-12-16T16:25:00.111Z,0
2016-12-16T16:26:34.230Z,0
2016-12-16T16:28:07.629Z,0
2016-12-16T16:29:41.825Z,0
2016-12-16T16:31:15.397Z,0
2016-12-16T16:32:49.261Z,0
2016-12-16T16:34:23.578Z,0
2016-12-16T16:35:56.905Z,0
2016-12-16T16:37:30.276Z,0
2016-12-16T16:39:04.721Z,0
2016-12-16T16:40:59.933Z,0
2016-12-16T16:42:33.535Z,0
2016-12-16T16:44:07.344Z,0
2016-12-16T16:45:41.776Z,0
2016-12-16T16:47:15.557Z,0
2016-12-16T16:48:49.546Z,0
2016-12-16T16:50:23.614Z,0
2016-12-16T16:51:57.473Z,0
2016-12-16T16:53:32.172Z,0
2016-12-16T16:55:06.543Z,0
2016-12-16T16:56:40.142Z,0
2016-12-16T16:58:14.087Z,0
2016-12-16T17:00:07.231Z,0
2016-12-16T17:01:40.945Z,0
2016-12-16T17:03:14.813Z,0
2016-12-16T17:04:49.218Z,0
2016-12-16T17:06:24.319Z,0
2016-12-16T17:07:58.990Z,0
2016-12-16T17:09:33.009Z,0
2016-12-16T17:11:07.114Z,0
2016-12-16T17:12:40.950Z,0
2016-12-16T17:14:14.819Z,0
2016-12-16T17:16:08.528Z,0
2016-12-16T17:17:44.606Z,0
2016-12-16T17:19:20.174Z,0
2016-12-16T17:20:55.179Z,0
2016-12-16T17:22:30.067Z,0
2016-12-16T17:24:03.607Z,0
2016-12-16T17:25:58.547Z,0
2016-12-16T17:27:36.810Z,0
2016-12-16T17:29:33.589Z,0
2016-12-16T17:31:07.218Z,0
2016-12-16T17:32:40.936Z,0
2016-12-16T17:34:15.724Z,0
2016-12-16T17:35:50.182Z,0
2016-12-16T17:37:24.137Z,0
2016-12-16T17:39:02.298Z,0
2016-12-16T17:40:55.839Z,0
2016-12-16T17:42:24.851Z,0
2016-12-16T17:43:39.035Z,0
2016-12-16T17:45:12.642Z,0
2016-12-16T17:46:46.721Z,0
2016-12-16T17:48:40.193Z,0
2016-12-16T17:50:14.091Z,0
2016-12-16T17:51:47.603Z,0
2016-12-16T17:53:21.281Z,0
2016-12-16T17:54:55.441Z,0
2016-12-16T17:56:30.158Z,0
2016-12-16T17:58:03.945Z,0
2016-12-16T17:59:37.926Z,0
2016-12-16T18:01:11.994Z,0
2016-12-16T18:02:45.455Z,0
2016-12-16T18:04:42.006Z,0
2016-12-16T18:06:16.449Z,0
2016-12-16T18:10:21.943Z,0
2016-12-16T18:11:56.503Z,0
2016-12-16T18:13:30.630Z,0
2016-12-16T18:15:04.658Z,0
2016-12-16T18:16:39.334Z,0
2016-12-16T18:18:08.754Z,0
2016-12-16T18:19:43.488Z,0
2016-12-16T18:21:17.309Z,0
2016-12-16T18:22:54.338Z,0
2016-12-16T18:24:29.194Z,0
2016-12-16T18:26:02.778Z,0
2016-12-16T18:27:36.166Z,0
2016-12-16T18:29:29.251Z,0
2016-12-16T18:31:03.053Z,0
2016-12-16T18:32:31.639Z,0
2016-12-16T18:33:46.405Z,0
2016-12-16T18:35:20.967Z,0
2016-12-16T18:37:14.502Z,0
2016-12-16T18:38:47.895Z,0
2016-12-16T18:40:16.823Z,0
2016-12-16T18:41:31.506Z,0
2016-12-16T18:43:25.492Z,0
2016-12-16T18:44:57.303Z,0
2016-12-16T18:46:31.779Z,0
2016-12-16T18:48:08.501Z,0
2016-12-16T18:49:43.886Z,0
2016-12-16T18:51:18.674Z,0
2016-12-16T18:52:53.133Z,0
2016-12-16T18:54:47.173Z,0
2016-12-16T18:56:20.976Z,0
2016-12-16T18:57:54.711Z,0
2016-12-16T18:59:28.488Z,0
2016-12-16T19:01:02.357Z,0
2016-12-16T19:02:37.398Z,0
2016-12-16T19:04:11.348Z,0
2016-12-16T19:05:45.141Z,0
2016-12-16T19:07:19.823Z,0
2016-12-16T19:08:54.523Z,0
2016-12-16T19:10:28.237Z,0
2016-12-16T19:12:21.073Z,0
2016-12-16T19:13:50.399Z,0
2016-12-16T19:15:04.624Z,0
2016-12-16T19:16:34.336Z,0
2016-12-16T19:18:08.113Z,0
2016-12-16T19:19:41.700Z,0
2016-12-16T19:21:15.797Z,0
2016-12-16T19:22:49.814Z,0
2016-12-16T19:24:24.240Z,0
2016-12-16T19:26:17.882Z,0
2016-12-16T19:27:51.711Z,0
2016-12-16T19:29:25.626Z,0
2016-12-16T19:30:59.057Z,0
2016-12-16T19:32:33.132Z,0
2016-12-16T19:34:07.333Z,0
2016-12-16T19:35:42.719Z,0
2016-12-16T19:37:16.865Z,0
2016-12-16T19:38:51.167Z,0
2016-12-16T19:40:44.926Z,0
2016-12-16T19:42:19.230Z,0
2016-12-16T19:43:55.305Z,0
2016-12-16T19:45:30.255Z,0
2016-12-16T19:47:03.919Z,0
2016-12-16T19:48:37.722Z,0
2016-12-16T19:50:12.207Z,0
2016-12-16T19:52:06.641Z,0
2016-12-16T19:53:21.414Z,0
2016-12-16T19:54:55.706Z,0
2016-12-16T19:56:30.428Z,0
2016-12-16T19:58:04.997Z,0
2016-12-16T19:59:39.173Z,0
2016-12-16T20:01:09.212Z,0
2016-12-16T20:02:43.692Z,0
2016-12-16T20:04:17.832Z,0
2016-12-16T20:05:51.736Z,0
2016-12-16T20:07:25.832Z,0
2016-12-16T20:09:19.378Z,0
2016-12-16T20:10:48.955Z,0
2016-12-16T20:12:03.923Z,0
2016-12-16T20:13:59.495Z,0
2016-12-16T20:15:33.112Z,0
2016-12-16T20:17:08.693Z,0
2016-12-16T20:18:42.137Z,0
2016-12-16T20:20:16.186Z,0
2016-12-16T20:21:50.283Z,0
2016-12-16T20:23:24.589Z,0
2016-12-16T20:24:58.280Z,0
2016-12-16T20:26:32.082Z,0
2016-12-16T20:28:06.222Z,0
2016-12-16T20:30:00.192Z,0
2016-12-16T20:31:35.068Z,0
2016-12-16T20:33:09.372Z,0
2016-12-16T20:34:45.533Z,0
2016-12-16T20:36:19.826Z,0
2016-12-16T20:37:50.881Z,0
2016-12-16T20:39:26.071Z,0
2016-12-16T20:41:00.578Z,0
2016-12-16T20:42:54.045Z,0
2016-12-16T20:44:28.385Z,0
2016-12-16T20:45:43.637Z,0
2016-12-16T20:47:47.850Z,0
2016-12-16T20:49:41.009Z,0
2016-12-16T20:50:58.226Z,0
2016-12-16T20:52:35.352Z,0
2016-12-16T20:54:08.676Z,0
2016-12-16T20:55:42.472Z,0
2016-12-16T20:57:17.021Z,0
2016-12-16T20:58:51.136Z,0
2016-12-16T21:00:44.286Z,0
2016-12-16T21:02:18.177Z,0
2016-12-16T21:03:52.846Z,0
2016-12-16T21:05:26.327Z,0
2016-12-16T21:06:55.293Z,0
2016-12-16T21:08:30.232Z,0
2016-12-16T21:10:03.829Z,0
2016-12-16T21:11:33.333Z,0
2016-12-16T21:13:08.225Z,0
2016-12-16T21:14:42.657Z,0
2016-12-16T21:16:17.170Z,0
2016-12-16T21:17:53.044Z,0
2016-12-16T21:19:27.506Z,0
2016-12-16T21:21:02.358Z,0
2016-12-16T21:22:38.797Z,0
2016-12-16T21:24:12.903Z,0
2016-12-16T21:25:46.850Z,0
2016-12-16T21:27:40.058Z,0
2016-12-16T21:29:15.538Z,0
2016-12-16T21:30:52.829Z,0
2016-12-16T21:33:17.652Z,0
2016-12-16T21:34:34.482Z,0
2016-12-16T21:36:30.063Z,0
2016-12-16T21:38:07.115Z,0
2016-12-16T21:40:03.808Z,0
2016-12-16T21:41:40.756Z,0
2016-12-16T21:43:14.314Z,0
2016-12-16T21:44:50.092Z,0
2016-12-16T21:46:26.430Z,0
2016-12-16T21:48:04.144Z,0
2016-12-16T21:49:58.600Z,0
2016-12-16T21:51:32.601Z,0
2016-12-16T21:53:06.635Z,0
2016-12-16T21:54:41.242Z,0
2016-12-16T21:56:15.234Z,0
2016-12-16T21:57:49.824Z,0
2016-12-16T21:59:23.772Z,0
2016-12-16T22:00:58.515Z,0
2016-12-16T22:02:32.030Z,0
2016-12-16T22:04:25.876Z,0
2016-12-16T22:05:55.072Z,0
2016-12-16T22:07:09.190Z,0
2016-12-16T22:08:43.393Z,0
2016-12-16T22:10:17.448Z,0
2016-12-16T22:11:46.827Z,0
2016-12-16T22:13:20.367Z,0
2016-12-16T22:14:54.023Z,0
2016-12-16T22:16:23.721Z,0
2016-12-16T22:17:59.669Z,0
2016-12-16T22:19:33.749Z,0
2016-12-16T22:21:07.164Z,0
2016-12-16T22:22:41.342Z,0
2016-12-16T22:24:34.706Z,0
2016-12-16T22:26:03.345Z,0
2016-12-16T22:27:17.981Z,0
2016-12-16T22:28:51.987Z,0
2016-12-16T22:30:26.057Z,0
2016-12-16T22:32:19.305Z,0
2016-12-16T22:33:53.144Z,0
2016-12-16T22:35:27.247Z,0
2016-12-16T22:37:01.149Z,0
2016-12-16T22:38:35.244Z,0
2016-12-16T22:40:09.212Z,0
2016-12-16T22:42:06.925Z,0
2016-12-16T22:43:40.737Z,0
2016-12-16T22:45:15.056Z,0
2016-12-16T22:46:49.629Z,0
2016-12-16T22:48:18.360Z,0
2016-12-16T22:49:52.233Z,0
2016-12-16T22:51:26.280Z,0
2016-12-16T22:53:00.623Z,0
2016-12-16T22:54:34.850Z,0
2016-12-16T22:56:09.106Z,0
2016-12-16T22:57:43.376Z,0
2016-12-16T22:59:17.012Z,0
2016-12-16T23:00:50.553Z,0
2016-12-16T23:02:26.793Z,0
2016-12-16T23:04:00.464Z,0